An Run Da 2 — BHNX — position and weather

sailwx.info

Track history (hours):
 
Tides and Currents Weather Stations Pressure Air Temp Water Temp Dewpoint Dewpoint Depression Visibility Wind Speed Wind Dir Waves Ship Positions

An Run Da 2

Last reported at 2016-Sep-16 17:33 UTC. Time now 2016-Sep-30 06:39 UTC.
Position N 31°22' E 121°37'.
Warning: this ship's position is 13 days out of date.

Length 147 m; draft 5 m.

MMSI: 413360230.

Date/timePositionNaut miles runAvg speedWind from/ knotsBaromVisibWave heightAir tempDewpointWater temp
2016-Sep-16 17:33N 31°22' E 121°37'19 9.4
2016-Sep-16 15:33N 31°33' E 121°20'18 0.5
2016-Sep-15 04:32N 31°45' E 121°05'8 8.6
2016-Sep-15 03:33N 31°40' E 121°12'2210.9
2016-Sep-15 01:33N 31°25' E 121°31'121 6.9
2016-Sep-14 08:10N 29°38' E 122°36'  
2016-Sep-11 19:13N 24°42' E 119°11'710.6
2016-Sep-11 18:34N 24°38' E 119°04'2811.4
2016-Sep-11 16:04N 24°24' E 118°37'1711.3
2016-Sep-11 14:32N 24°18' E 118°19'1111.1
2016-Sep-11 13:34N 24°22' E 118°08'8 7.9
2016-Sep-11 12:33N 24°30' E 118°04'2 2.4
2016-Sep-11 11:33N 24°32' E 118°05'0 0.0
2016-Sep-11 10:33N 24°32' E 118°05'0 0.0
2016-Sep-11 08:29N 24°32' E 118°05'0 0.0
2016-Sep-11 07:23N 24°32' E 118°05'0 0.0
2016-Sep-11 03:33N 24°32' E 118°05'0 0.0
2016-Sep-11 02:30N 24°32' E 118°05'0 0.0
2016-Sep-11 01:30N 24°32' E 118°05'0 0.0
2016-Sep-11 00:30N 24°32' E 118°05'0 0.0
2016-Sep-10 23:30N 24°32' E 118°05'0 0.0
2016-Sep-10 22:24N 24°32' E 118°05'0 0.0
2016-Sep-10 21:33N 24°32' E 118°05'0 0.0
2016-Sep-10 20:16N 24°32' E 118°05'0 0.0
2016-Sep-10 19:30N 24°32' E 118°05'0 0.0
2016-Sep-10 18:30N 24°32' E 118°05'0 0.0
2016-Sep-10 17:10N 24°32' E 118°05'0 0.0
2016-Sep-10 16:33N 24°32' E 118°05'0 0.0
2016-Sep-10 13:30N 24°32' E 118°05'0 0.0
2016-Sep-10 12:22N 24°32' E 118°05'0 0.0
2016-Sep-10 11:22N 24°32' E 118°05'0 0.0
2016-Sep-10 10:22N 24°32' E 118°05'0 0.0
2016-Sep-10 09:25N 24°32' E 118°05'0 0.0
2016-Sep-10 08:22N 24°32' E 118°05'0 0.0
2016-Sep-10 07:28N 24°32' E 118°05'0 0.0
2016-Sep-10 06:22N 24°32' E 118°05'2 1.0
2016-Sep-10 04:34N 24°31' E 118°07'1 1.2
2016-Sep-10 03:30N 24°32' E 118°06'0 0.3
2016-Sep-10 02:19N 24°32' E 118°05'0 0.3
2016-Sep-10 01:31N 24°32' E 118°05'0 0.2
2016-Sep-10 00:13N 24°32' E 118°05'0 0.3
2016-Sep-09 23:29N 24°32' E 118°05'0 0.0
2016-Sep-09 22:28N 24°32' E 118°05'0 0.0
2016-Sep-09 21:28N 24°32' E 118°05'0 0.0
2016-Sep-09 20:33N 24°32' E 118°05'0 0.1
2016-Sep-09 19:31N 24°32' E 118°05'0 0.0
2016-Sep-09 18:28N 24°32' E 118°05'0 0.0
2016-Sep-09 17:30N 24°32' E 118°05'0 0.1
2016-Sep-09 16:30N 24°32' E 118°05'0 0.1
2016-Sep-09 15:33N 24°32' E 118°05'0 0.0
2016-Sep-09 14:33N 24°32' E 118°05'0 0.0
2016-Sep-09 13:33N 24°32' E 118°05'0 0.1
2016-Sep-09 12:09N 24°32' E 118°05'0 0.1
2016-Sep-09 11:17N 24°32' E 118°05'0 0.1
2016-Sep-09 10:11N 24°32' E 118°05'0 0.1
2016-Sep-09 09:32N 24°32' E 118°05'0 0.2
2016-Sep-09 08:32N 24°32' E 118°05'0 0.1
2016-Sep-09 07:29N 24°32' E 118°05'0 0.1
2016-Sep-09 06:33N 24°32' E 118°05'0 0.1
2016-Sep-09 05:25N 24°32' E 118°05'0 0.0
2016-Sep-09 04:30N 24°32' E 118°05'0 0.0
2016-Sep-09 03:33N 24°32' E 118°05'0 0.0
2016-Sep-09 02:30N 24°32' E 118°05'0 0.0
2016-Sep-09 01:30N 24°32' E 118°05'0 0.0
2016-Sep-09 00:27N 24°32' E 118°05'0 0.0
2016-Sep-08 23:27N 24°32' E 118°05'0 0.0
2016-Sep-08 22:21N 24°32' E 118°05'0 0.0
2016-Sep-08 21:30N 24°32' E 118°05'0 0.0
2016-Sep-08 20:33N 24°32' E 118°05'0 0.0
2016-Sep-08 19:30N 24°32' E 118°05'0 0.0
2016-Sep-08 18:18N 24°32' E 118°05'0 0.1
2016-Sep-08 17:30N 24°32' E 118°05'0 0.0
2016-Sep-08 16:20N 24°32' E 118°05'0 0.1
2016-Sep-08 15:27N 24°32' E 118°05'0 0.2
2016-Sep-08 14:29N 24°32' E 118°05'0 0.0
2016-Sep-08 13:29N 24°32' E 118°05'0 0.0
2016-Sep-08 12:29N 24°32' E 118°05'0 0.1
2016-Sep-08 11:31N 24°32' E 118°05'0 0.1
2016-Sep-08 10:33N 24°32' E 118°05'0 0.0
2016-Sep-08 09:33N 24°32' E 118°05'0 0.0
2016-Sep-08 08:32N 24°32' E 118°05'0 0.0
2016-Sep-08 07:22N 24°32' E 118°05'0 0.0
2016-Sep-08 06:17N 24°32' E 118°05'0 0.0
2016-Sep-08 05:29N 24°32' E 118°05'0 0.0
2016-Sep-08 04:29N 24°32' E 118°05'0 0.0
2016-Sep-08 03:29N 24°32' E 118°05'0 0.0
2016-Sep-08 02:20N 24°32' E 118°05'0 0.0
2016-Sep-08 01:33N 24°32' E 118°05'0 0.1
2016-Sep-08 00:32N 24°32' E 118°05'0 0.0
2016-Sep-07 23:32N 24°32' E 118°05'0 0.0
2016-Sep-07 22:24N 24°32' E 118°05'0 0.0
2016-Sep-07 21:33N 24°32' E 118°05'0 0.0
2016-Sep-07 20:27N 24°32' E 118°05'0 0.0
2016-Sep-07 19:15N 24°32' E 118°05'0 0.1
2016-Sep-07 18:33N 24°32' E 118°05'0 0.0
2016-Sep-07 17:33N 24°32' E 118°05'0 0.0
2016-Sep-07 16:26N 24°32' E 118°05'0 0.0
2016-Sep-07 15:32N 24°32' E 118°05'0 0.0
2016-Sep-07 14:29N 24°32' E 118°05'0 0.0
2016-Sep-07 13:29N 24°32' E 118°05'0 0.0
2016-Sep-07 12:30N 24°32' E 118°05'0 0.0
2016-Sep-07 11:33N 24°32' E 118°05'0 0.0
2016-Sep-07 10:21N 24°32' E 118°05'0 0.0
2016-Sep-07 09:27N 24°32' E 118°05'0 0.0
2016-Sep-07 08:33N 24°32' E 118°05'0 0.0
2016-Sep-07 07:31N 24°32' E 118°05'0 0.0
2016-Sep-07 06:31N 24°32' E 118°05'0 0.0
2016-Sep-07 04:28N 24°32' E 118°05'0 0.0
2016-Sep-07 03:33N 24°32' E 118°05'0 0.0
2016-Sep-07 02:33N 24°32' E 118°05'0 0.0
2016-Sep-07 01:33N 24°32' E 118°05'0 0.0
2016-Sep-07 00:33N 24°32' E 118°05'0 0.4
2016-Sep-06 23:27N 24°32' E 118°05'0 0.5
2016-Sep-06 22:33N 24°32' E 118°05'0 0.0
2016-Sep-06 21:32N 24°32' E 118°05'0 0.0
2016-Sep-06 20:29N 24°32' E 118°05'0 0.0
2016-Sep-06 19:20N 24°32' E 118°05'0 0.0
2016-Sep-06 18:24N 24°32' E 118°05'  
Track history (hours):
 
Tides and Currents Weather Stations Pressure Air Temp Water Temp Dewpoint Dewpoint Depression Visibility Wind Speed Wind Dir Waves Ship Positions

An Run Da 2

Last reported at 2016-Sep-16 17:33 UTC. Time now 2016-Sep-30 06:39 UTC.
Position N 31°22' E 121°37'.
Warning: this ship's position is 13 days out of date.

Length 147 m; draft 5 m.

MMSI: 413360230.

Date/timePositionNaut miles runAvg speedWind from/ knotsBaromVisibWave heightAir tempDewpointWater temp
2016-Sep-16 17:33N 31°22' E 121°37'19 9.4
2016-Sep-16 15:33N 31°33' E 121°20'18 0.5
2016-Sep-15 04:32N 31°45' E 121°05'8 8.6
2016-Sep-15 03:33N 31°40' E 121°12'2210.9
2016-Sep-15 01:33N 31°25' E 121°31'121 6.9
2016-Sep-14 08:10N 29°38' E 122°36'  
2016-Sep-11 19:13N 24°42' E 119°11'710.6
2016-Sep-11 18:34N 24°38' E 119°04'2811.4
2016-Sep-11 16:04N 24°24' E 118°37'1711.3
2016-Sep-11 14:32N 24°18' E 118°19'1111.1
2016-Sep-11 13:34N 24°22' E 118°08'8 7.9
2016-Sep-11 12:33N 24°30' E 118°04'2 2.4
2016-Sep-11 11:33N 24°32' E 118°05'0 0.0
2016-Sep-11 10:33N 24°32' E 118°05'0 0.0
2016-Sep-11 08:29N 24°32' E 118°05'0 0.0
2016-Sep-11 07:23N 24°32' E 118°05'0 0.0
2016-Sep-11 03:33N 24°32' E 118°05'0 0.0
2016-Sep-11 02:30N 24°32' E 118°05'0 0.0
2016-Sep-11 01:30N 24°32' E 118°05'0 0.0
2016-Sep-11 00:30N 24°32' E 118°05'0 0.0
2016-Sep-10 23:30N 24°32' E 118°05'0 0.0
2016-Sep-10 22:24N 24°32' E 118°05'0 0.0
2016-Sep-10 21:33N 24°32' E 118°05'0 0.0
2016-Sep-10 20:16N 24°32' E 118°05'0 0.0
2016-Sep-10 19:30N 24°32' E 118°05'0 0.0
2016-Sep-10 18:30N 24°32' E 118°05'0 0.0
2016-Sep-10 17:10N 24°32' E 118°05'0 0.0
2016-Sep-10 16:33N 24°32' E 118°05'0 0.0
2016-Sep-10 13:30N 24°32' E 118°05'0 0.0
2016-Sep-10 12:22N 24°32' E 118°05'0 0.0
2016-Sep-10 11:22N 24°32' E 118°05'0 0.0
2016-Sep-10 10:22N 24°32' E 118°05'0 0.0
2016-Sep-10 09:25N 24°32' E 118°05'0 0.0
2016-Sep-10 08:22N 24°32' E 118°05'0 0.0
2016-Sep-10 07:28N 24°32' E 118°05'0 0.0
2016-Sep-10 06:22N 24°32' E 118°05'2 1.0
2016-Sep-10 04:34N 24°31' E 118°07'1 1.2
2016-Sep-10 03:30N 24°32' E 118°06'0 0.3
2016-Sep-10 02:19N 24°32' E 118°05'0 0.3
2016-Sep-10 01:31N 24°32' E 118°05'0 0.2
2016-Sep-10 00:13N 24°32' E 118°05'0 0.3
2016-Sep-09 23:29N 24°32' E 118°05'0 0.0
2016-Sep-09 22:28N 24°32' E 118°05'0 0.0
2016-Sep-09 21:28N 24°32' E 118°05'0 0.0
2016-Sep-09 20:33N 24°32' E 118°05'0 0.1
2016-Sep-09 19:31N 24°32' E 118°05'0 0.0
2016-Sep-09 18:28N 24°32' E 118°05'0 0.0
2016-Sep-09 17:30N 24°32' E 118°05'0 0.1
2016-Sep-09 16:30N 24°32' E 118°05'0 0.1
2016-Sep-09 15:33N 24°32' E 118°05'0 0.0
2016-Sep-09 14:33N 24°32' E 118°05'0 0.0
2016-Sep-09 13:33N 24°32' E 118°05'0 0.1
2016-Sep-09 12:09N 24°32' E 118°05'0 0.1
2016-Sep-09 11:17N 24°32' E 118°05'0 0.1
2016-Sep-09 10:11N 24°32' E 118°05'0 0.1
2016-Sep-09 09:32N 24°32' E 118°05'0 0.2
2016-Sep-09 08:32N 24°32' E 118°05'0 0.1
2016-Sep-09 07:29N 24°32' E 118°05'0 0.1
2016-Sep-09 06:33N 24°32' E 118°05'0 0.1
2016-Sep-09 05:25N 24°32' E 118°05'0 0.0
2016-Sep-09 04:30N 24°32' E 118°05'0 0.0
2016-Sep-09 03:33N 24°32' E 118°05'0 0.0
2016-Sep-09 02:30N 24°32' E 118°05'0 0.0
2016-Sep-09 01:30N 24°32' E 118°05'0 0.0
2016-Sep-09 00:27N 24°32' E 118°05'0 0.0
2016-Sep-08 23:27N 24°32' E 118°05'0 0.0
2016-Sep-08 22:21N 24°32' E 118°05'0 0.0
2016-Sep-08 21:30N 24°32' E 118°05'0 0.0
2016-Sep-08 20:33N 24°32' E 118°05'0 0.0
2016-Sep-08 19:30N 24°32' E 118°05'0 0.0
2016-Sep-08 18:18N 24°32' E 118°05'0 0.1
2016-Sep-08 17:30N 24°32' E 118°05'0 0.0
2016-Sep-08 16:20N 24°32' E 118°05'0 0.1
2016-Sep-08 15:27N 24°32' E 118°05'0 0.2
2016-Sep-08 14:29N 24°32' E 118°05'0 0.0
2016-Sep-08 13:29N 24°32' E 118°05'0 0.0
2016-Sep-08 12:29N 24°32' E 118°05'0 0.1
2016-Sep-08 11:31N 24°32' E 118°05'0 0.1
2016-Sep-08 10:33N 24°32' E 118°05'0 0.0
2016-Sep-08 09:33N 24°32' E 118°05'0 0.0
2016-Sep-08 08:32N 24°32' E 118°05'0 0.0
2016-Sep-08 07:22N 24°32' E 118°05'0 0.0
2016-Sep-08 06:17N 24°32' E 118°05'0 0.0
2016-Sep-08 05:29N 24°32' E 118°05'0 0.0
2016-Sep-08 04:29N 24°32' E 118°05'0 0.0
2016-Sep-08 03:29N 24°32' E 118°05'0 0.0
2016-Sep-08 02:20N 24°32' E 118°05'0 0.0
2016-Sep-08 01:33N 24°32' E 118°05'0 0.1
2016-Sep-08 00:32N 24°32' E 118°05'0 0.0
2016-Sep-07 23:32N 24°32' E 118°05'0 0.0
2016-Sep-07 22:24N 24°32' E 118°05'0 0.0
2016-Sep-07 21:33N 24°32' E 118°05'0 0.0
2016-Sep-07 20:27N 24°32' E 118°05'0 0.0
2016-Sep-07 19:15N 24°32' E 118°05'0 0.1
2016-Sep-07 18:33N 24°32' E 118°05'0 0.0
2016-Sep-07 17:33N 24°32' E 118°05'0 0.0
2016-Sep-07 16:26N 24°32' E 118°05'0 0.0
2016-Sep-07 15:32N 24°32' E 118°05'0 0.0
2016-Sep-07 14:29N 24°32' E 118°05'0 0.0
2016-Sep-07 13:29N 24°32' E 118°05'0 0.0
2016-Sep-07 12:30N 24°32' E 118°05'0 0.0
2016-Sep-07 11:33N 24°32' E 118°05'0 0.0
2016-Sep-07 10:21N 24°32' E 118°05'0 0.0
2016-Sep-07 09:27N 24°32' E 118°05'0 0.0
2016-Sep-07 08:33N 24°32' E 118°05'0 0.0
2016-Sep-07 07:31N 24°32' E 118°05'0 0.0
2016-Sep-07 06:31N 24°32' E 118°05'0 0.0
2016-Sep-07 04:28N 24°32' E 118°05'0 0.0
2016-Sep-07 03:33N 24°32' E 118°05'0 0.0
2016-Sep-07 02:33N 24°32' E 118°05'0 0.0
2016-Sep-07 01:33N 24°32' E 118°05'0 0.0
2016-Sep-07 00:33N 24°32' E 118°05'0 0.4
2016-Sep-06 23:27N 24°32' E 118°05'0 0.5
2016-Sep-06 22:33N 24°32' E 118°05'0 0.0
2016-Sep-06 21:32N 24°32' E 118°05'0 0.0
2016-Sep-06 20:29N 24°32' E 118°05'0 0.0
2016-Sep-06 19:20N 24°32' E 118°05'0 0.0
2016-Sep-06 18:24N 24°32' E 118°05'  

Dump ship's entire track history